Time;durP1;ratioP1;P1;durP2;ratioP2;P2;SDS_P1;SDS_P2;PMS_P1;PMS_P2;Temp;Humidity;BMP_temperature;BMP_pressure;BME280_temperature;BME280_humidity;BME280_pressure;Samples;Min_cycle;Max_cycle;Signal;HPM_P1;HPM_P2
2022/01/25 00:24:29;;;;;;;;;77.50;59.25;;;;;1.94;72.64;100848.34;4976017;28;45270;-82
2022/01/25 00:26:37;;;;;;;;;74.50;59.25;;;;;1.92;72.56;100851.72;4972662;28;45488;-82
2022/01/25 00:29:10;;;;;;;;;83.00;61.75;;;;;1.90;72.82;100853.41;4975777;28;45434;-82
2022/01/25 00:31:38;;;;;;;;;74.75;58.75;;;;;1.88;72.99;100848.19;4975952;28;45391;-82
2022/01/25 00:34:04;;;;;;;;;68.00;56.50;;;;;1.87;73.25;100848.16;4975518;28;45364;-82
2022/01/25 00:36:30;;;;;;;;;73.50;51.50;;;;;1.85;73.17;100845.50;4990933;28;47131;-82
2022/01/25 00:38:57;;;;;;;;;74.50;57.75;;;;;1.85;73.32;100857.63;4976037;28;45324;-82
2022/01/25 00:41:24;;;;;;;;;77.75;59.25;;;;;1.83;73.00;100854.16;4975812;28;45430;-82
2022/01/25 00:43:50;;;;;;;;;76.25;58.75;;;;;1.81;73.20;100850.63;4975733;28;45311;-82
2022/01/25 00:46:19;;;;;;;;;78.25;58.00;;;;;1.78;73.64;100859.22;4986988;28;47684;-82
2022/01/25 00:48:47;;;;;;;;;79.50;60.00;;;;;1.77;73.76;100856.59;4980107;28;45691;-82
2022/01/25 00:51:56;;;;;;;;;73.25;57.00;;;;;1.74;73.57;100855.66;4990925;28;45348;-82
2022/01/25 00:54:27;;;;;;;;;76.50;60.00;;;;;1.74;73.69;100852.19;4967140;28;45451;-82
2022/01/25 00:56:54;;;;;;;;;76.50;61.50;;;;;1.73;74.01;100853.03;4963498;28;46300;-82
2022/01/25 00:59:23;;;;;;;;;80.75;60.00;;;;;1.71;73.66;100854.72;4975616;28;45583;-82
2022/01/25 01:01:51;;;;;;;;;75.75;60.75;;;;;1.69;73.85;100852.06;4974446;28;45402;-82
2022/01/25 01:04:18;;;;;;;;;71.50;55.25;;;;;1.67;73.89;100853.78;4975183;28;45404;-82
2022/01/25 01:06:45;;;;;;;;;75.50;60.25;;;;;1.64;73.93;100853.72;4975247;28;46211;-83
2022/01/25 01:09:12;;;;;;;;;79.25;58.25;;;;;1.62;74.36;100854.50;4972227;28;45389;-82
2022/01/25 01:11:50;;;;;;;;;79.25;62.75;;;;;1.59;74.33;100850.13;4990718;28;45370;-82
2022/01/25 01:14:51;;;;;;;;;75.75;59.00;;;;;1.58;74.57;100860.47;4978873;28;45352;-82
2022/01/25 01:36:17;;;;;;;;;73.50;56.50;;;;;1.49;74.96;100866.34;4978423;28;45503;-83
2022/01/25 01:43:44;;;;;;;;;69.50;54.00;;;;;1.45;75.18;100874.03;4975552;28;45343;-81
2022/01/25 01:48:42;;;;;;;;;79.50;59.75;;;;;1.43;75.20;100871.38;4972213;28;45414;-81
2022/01/25 01:51:16;;;;;;;;;68.25;54.25;;;;;1.40;75.33;100872.19;4976909;28;45469;-81
2022/01/25 01:53:43;;;;;;;;;73.25;57.25;;;;;1.37;75.41;100872.09;4978258;28;45334;-81
2022/01/25 01:56:09;;;;;;;;;74.00;57.25;;;;;1.37;75.54;100877.28;4978133;28;45516;-81
2022/01/25 01:58:35;;;;;;;;;64.75;52.50;;;;;1.36;75.55;100879.84;4992927;28;47847;-81
2022/01/25 02:01:02;;;;;;;;;76.25;59.25;;;;;1.34;75.46;100881.56;4977995;28;45473;-82
2022/01/25 02:03:27;;;;;;;;;72.50;58.75;;;;;1.33;76.07;100879.81;4975376;28;45387;-81
2022/01/25 02:05:53;;;;;;;;;69.50;55.75;;;;;1.33;75.78;100882.41;4977929;28;45364;-82
2022/01/25 02:08:18;;;;;;;;;72.25;56.75;;;;;1.30;75.81;100880.59;4977713;28;45287;-81
2022/01/25 02:10:44;;;;;;;;;74.75;59.25;;;;;1.31;76.08;100891.88;4992937;28;45423;-81
2022/01/25 02:13:10;;;;;;;;;69.25;54.75;;;;;1.28;75.50;100877.06;4990072;28;45342;-81
2022/01/25 02:15:37;;;;;;;;;73.75;54.75;;;;;1.27;75.98;100882.22;4973143;28;45276;-81
2022/01/25 02:23:42;;;;;;;;;80.00;59.50;;;;;1.20;76.11;100883.78;4961227;28;45279;-82
2022/01/25 02:26:09;;;;;;;;;70.50;56.50;;;;;1.17;75.86;100882.84;4992819;28;45539;-82
2022/01/25 02:28:37;;;;;;;;;83.25;60.00;;;;;1.17;76.08;100880.25;4976078;28;46266;-82
2022/01/25 02:31:05;;;;;;;;;78.25;57.25;;;;;1.13;76.23;100875.81;4977770;28;45305;-82
2022/01/25 02:33:31;;;;;;;;;71.25;57.25;;;;;1.11;76.40;100880.09;4977146;28;45212;-82
2022/01/25 02:35:58;;;;;;;;;73.50;58.25;;;;;1.10;76.17;100883.50;4977640;28;45447;-82
2022/01/25 02:38:27;;;;;;;;;71.50;55.25;;;;;1.08;76.44;100877.41;4977563;28;45364;-82
2022/01/25 02:40:53;;;;;;;;;73.25;57.25;;;;;1.05;76.66;100885.97;4977548;28;45300;-82
2022/01/25 02:43:20;;;;;;;;;75.00;60.00;;;;;1.03;76.60;100885.06;4977361;28;45465;-82
2022/01/25 02:46:21;;;;;;;;;77.75;60.75;;;;;0.99;76.53;100884.13;4992399;28;45627;-82
2022/01/25 02:48:57;;;;;;;;;73.75;59.50;;;;;0.96;76.85;100884.03;4968951;28;46564;-82
2022/01/25 02:51:26;;;;;;;;;75.00;59.25;;;;;0.96;76.60;100884.03;4977200;28;45379;-82
2022/01/25 02:53:52;;;;;;;;;77.50;59.00;;;;;0.93;76.83;100878.75;4975387;28;45412;-83
2022/01/25 02:56:18;;;;;;;;;75.75;60.25;;;;;0.93;77.19;100883.94;4976909;28;45209;-82
2022/01/25 02:58:44;;;;;;;;;76.25;59.75;;;;;0.93;77.07;100878.75;4977409;28;45525;-82
2022/01/25 03:01:10;;;;;;;;;75.75;59.50;;;;;0.93;76.61;100883.94;4975915;28;45350;-82
2022/01/25 03:03:36;;;;;;;;;79.75;60.75;;;;;0.93;76.80;100885.66;4977283;28;45414;-82
2022/01/25 03:06:02;;;;;;;;;67.50;54.75;;;;;0.92;76.86;100879.59;4975847;28;45412;-82
2022/01/25 03:08:28;;;;;;;;;79.25;60.25;;;;;0.92;76.72;100889.09;4988384;28;46841;-82
2022/01/25 03:10:54;;;;;;;;;81.25;59.50;;;;;0.91;77.01;100890.81;4991298;28;45437;-82
2022/01/25 03:13:24;;;;;;;;;76.50;59.75;;;;;0.91;76.86;100892.53;4992178;28;45477;-82
2022/01/25 03:21:16;;;;;;;;;72.25;58.00;;;;;0.86;76.77;100896.72;4976844;28;45324;-82
2022/01/25 03:23:43;;;;;;;;;78.50;59.25;;;;;0.83;77.19;100881.94;4991419;28;45470;-82
2022/01/25 03:26:08;;;;;;;;;71.75;55.00;;;;;0.83;76.98;100889.75;4991476;28;45646;-82
2022/01/25 03:28:34;;;;;;;;;76.25;59.50;;;;;0.81;76.87;100888.81;4989286;28;46938;-82
2022/01/25 03:30:59;;;;;;;;;80.75;61.25;;;;;0.80;77.25;100892.25;4986944;28;45332;-82
2022/01/25 03:33:25;;;;;;;;;73.00;59.50;;;;;0.80;77.29;100891.38;4972405;28;45767;-82
2022/01/25 03:35:50;;;;;;;;;72.00;56.25;;;;;0.78;77.15;100893.91;4976387;28;45633;-81
2022/01/25 03:38:16;;;;;;;;;82.25;57.00;;;;;0.77;77.39;100893.88;4976789;28;46383;-82
2022/01/25 03:40:42;;;;;;;;;83.50;61.50;;;;;0.74;77.12;100894.66;4991835;28;45465;-82
2022/01/25 03:43:08;;;;;;;;;79.25;58.00;;;;;0.74;77.43;100904.16;4976846;28;45261;-82
2022/01/25 03:45:36;;;;;;;;;77.00;57.75;;;;;0.72;77.41;100901.53;4975470;28;45242;-82
2022/01/25 03:50:42;;;;;;;;;74.50;55.50;;;;;0.67;77.43;100895.34;4975797;28;45360;-82
2022/01/25 03:53:09;;;;;;;;;77.50;60.00;;;;;0.65;77.61;100900.50;4974542;28;45521;-82
2022/01/25 03:55:35;;;;;;;;;75.25;59.50;;;;;0.64;77.64;100893.53;4988396;28;45205;-82
2022/01/25 03:58:01;;;;;;;;;68.50;54.75;;;;;0.62;78.04;100902.13;4988187;28;47954;-82
2022/01/25 04:00:27;;;;;;;;;71.75;55.75;;;;;0.61;77.84;100892.56;4976514;28;45305;-82
2022/01/25 04:02:59;;;;;;;;;70.50;55.00;;;;;0.60;77.66;100896.00;4976738;28;45214;-82
2022/01/25 04:05:35;;;;;;;;;76.50;61.75;;;;;0.59;77.60;100899.44;4987885;28;45493;-82
2022/01/25 04:08:02;;;;;;;;;79.50;60.50;;;;;0.57;77.94;100901.09;4990357;28;47821;-82
2022/01/25 04:10:28;;;;;;;;;76.75;58.75;;;;;0.54;77.81;100901.88;4976046;28;45402;-82
2022/01/25 04:12:53;;;;;;;;;71.25;56.00;;;;;0.53;77.84;100904.44;4991154;28;45424;-82
2022/01/25 04:15:18;;;;;;;;;72.25;57.00;;;;;0.53;77.82;100902.72;4976286;28;45354;-83
2022/01/25 04:17:49;;;;;;;;;77.00;59.50;;;;;0.54;78.03;100901.88;4971900;28;47829;-83
2022/01/25 04:25:27;;;;;;;;;72.50;55.75;;;;;0.56;77.79;100896.75;4971308;28;45205;-82
2022/01/25 04:27:53;;;;;;;;;75.25;56.75;;;;;0.53;78.00;100899.25;4974765;28;46858;-82
2022/01/25 04:30:19;;;;;;;;;78.25;59.25;;;;;0.52;78.18;100897.47;4991035;28;45681;-82
2022/01/25 04:32:48;;;;;;;;;77.00;60.25;;;;;0.51;77.95;100903.50;4967685;28;45256;-82
2022/01/25 05:01:45;;;;;;;;;84.00;61.00;;;;;0.48;78.39;100904.31;4963261;28;45561;-81
2022/01/25 05:04:17;;;;;;;;;72.75;58.75;;;;;0.48;78.57;100900.84;4970534;28;45363;-82
2022/01/25 05:06:45;;;;;;;;;79.75;62.25;;;;;0.48;78.33;100900.84;4975154;28;45441;-82
2022/01/25 05:09:13;;;;;;;;;70.50;57.25;;;;;0.46;78.55;100906.00;4974766;28;46098;-82
2022/01/25 05:11:47;;;;;;;;;72.75;58.50;;;;;0.45;78.28;100905.94;4990253;28;45384;-82
2022/01/25 05:14:18;;;;;;;;;77.50;58.50;;;;;0.43;78.84;100905.88;4972882;28;45219;-82
2022/01/25 05:16:53;;;;;;;;;75.50;59.75;;;;;0.40;78.51;100903.19;4975529;28;45203;-82
2022/01/25 05:19:26;;;;;;;;;76.75;60.00;;;;;0.40;78.83;100907.50;4975251;28;45327;-82
2022/01/25 05:24:40;;;;;;;;;79.50;63.00;;;;;0.34;78.58;100909.06;4964829;28;45415;-82
2022/01/25 05:27:08;;;;;;;;;77.25;60.00;;;;;0.30;78.90;100915.03;4989991;28;46188;-82
2022/01/25 05:29:34;;;;;;;;;67.75;57.75;;;;;0.29;78.58;100917.59;4990290;28;48507;-82
2022/01/25 05:32:00;;;;;;;;;76.50;60.75;;;;;0.27;78.76;100917.53;4974801;28;45296;-82
2022/01/25 05:34:25;;;;;;;;;84.00;64.25;;;;;0.26;78.66;100917.47;4990109;28;45517;-82
2022/01/25 05:36:51;;;;;;;;;78.00;61.75;;;;;0.26;78.96;100926.16;4989039;28;45346;-82
2022/01/25 05:39:26;;;;;;;;;82.50;61.75;;;;;0.24;78.92;100917.44;4989978;28;46930;-81
2022/01/25 05:41:57;;;;;;;;;75.00;60.25;;;;;0.23;78.76;100920.84;4974751;28;45432;-82
2022/01/25 05:49:21;;;;;;;;;74.25;57.75;;;;;0.21;78.90;100919.03;4966867;28;45340;-81
2022/01/25 05:51:47;;;;;;;;;55.25;43.25;;;;;0.23;79.10;100920.84;4974957;28;45340;-82
2022/01/25 05:54:12;;;;;;;;;63.50;50.25;;;;;0.23;79.03;100912.19;4975336;28;45387;-83
2022/01/25 05:56:38;;;;;;;;;84.50;62.50;;;;;0.22;79.21;100919.09;4974521;28;45434;-83
2022/01/25 05:59:04;;;;;;;;;76.75;60.25;;;;;0.21;79.05;100909.56;4989657;28;46476;-83
2022/01/25 06:01:29;;;;;;;;;79.25;60.25;;;;;0.23;79.08;100917.38;4977790;28;45413;-83
2022/01/25 06:03:55;;;;;;;;;79.25;59.50;;;;;0.23;79.04;100920.84;4977413;28;45327;-82
2022/01/25 06:06:21;;;;;;;;;77.75;61.00;;;;;0.24;79.00;100919.16;4977525;28;45497;-83
2022/01/25 06:08:47;;;;;;;;;77.75;61.50;;;;;0.24;79.09;100913.97;4977395;28;46145;-83
2022/01/25 06:11:15;;;;;;;;;74.50;58.25;;;;;0.26;79.11;100926.16;4977259;28;45446;-82
2022/01/25 06:13:41;;;;;;;;;76.50;60.00;;;;;0.27;79.59;100924.44;4974307;28;45529;-83
2022/01/25 06:16:06;;;;;;;;;70.75;54.25;;;;;0.27;79.40;100922.72;4991689;28;45410;-83
2022/01/25 06:18:32;;;;;;;;;79.00;59.00;;;;;0.28;78.85;100921.00;4977025;28;45518;-82
2022/01/25 06:20:57;;;;;;;;;76.75;58.75;;;;;0.30;79.12;100929.72;4992353;28;45648;-83
2022/01/25 06:23:23;;;;;;;;;77.00;59.25;;;;;0.30;78.80;100930.59;4976094;28;45357;-83
2022/01/25 06:25:48;;;;;;;;;77.00;60.25;;;;;0.30;79.08;100940.97;4976595;28;45473;-83
2022/01/25 06:28:13;;;;;;;;;70.75;58.75;;;;;0.30;79.10;100943.56;4977138;28;46468;-83
2022/01/25 06:30:40;;;;;;;;;74.75;59.25;;;;;0.31;79.33;100937.53;4977000;28;45454;-83
2022/01/25 06:33:08;;;;;;;;;76.75;59.50;;;;;0.32;79.00;100938.44;4976893;28;45316;-83
2022/01/25 06:35:34;;;;;;;;;73.50;60.00;;;;;0.33;79.02;100946.25;4990526;28;45527;-82
2022/01/25 06:38:00;;;;;;;;;76.75;60.50;;;;;0.34;79.10;100941.91;4989568;28;46348;-84
2022/01/25 06:40:26;;;;;;;;;69.00;55.75;;;;;0.36;78.77;100948.03;4976053;28;45400;-84
2022/01/25 06:42:52;;;;;;;;;76.25;57.25;;;;;0.37;78.63;100946.31;4973334;28;45323;-84
2022/01/25 06:45:20;;;;;;;;;74.25;56.75;;;;;0.37;79.00;100952.41;4976097;28;45570;-84
2022/01/25 06:47:47;;;;;;;;;76.25;59.50;;;;;0.36;79.02;100948.03;4974834;28;47156;-83
2022/01/25 06:50:14;;;;;;;;;76.75;61.00;;;;;0.34;78.96;100945.41;4975198;28;45372;-84
2022/01/25 06:52:42;;;;;;;;;77.75;60.50;;;;;0.32;78.69;100941.91;4976590;28;45176;-84
2022/01/25 06:55:10;;;;;;;;;78.75;61.00;;;;;0.34;79.02;100953.19;4975961;28;45623;-84
2022/01/25 06:57:36;;;;;;;;;72.00;56.25;;;;;0.34;78.85;100949.69;4974956;28;48028;-84
2022/01/25 07:00:05;;;;;;;;;74.25;58.00;;;;;0.36;79.19;100942.84;4974875;28;45754;-70
2022/01/25 07:02:30;;;;;;;;;77.25;60.50;;;;;0.45;78.87;100952.63;4975355;28;45480;-70
2022/01/25 07:04:55;;;;;;;;;77.50;59.50;;;;;0.52;78.92;100957.16;4973752;28;45556;-70
2022/01/25 07:07:21;;;;;;;;;81.25;60.00;;;;;0.56;78.67;100954.69;4974475;28;45384;-70
2022/01/25 07:09:46;;;;;;;;;78.75;62.00;;;;;0.59;78.57;100957.41;4974401;28;45373;-70
2022/01/25 07:12:12;;;;;;;;;76.00;60.25;;;;;0.61;78.31;100952.25;4973777;28;45356;-70
2022/01/25 07:14:37;;;;;;;;;78.75;62.00;;;;;0.65;78.01;100955.00;4988653;28;45371;-70
2022/01/25 07:17:03;;;;;;;;;77.75;60.50;;;;;0.65;78.24;100947.22;4975239;28;46385;-70
2022/01/25 07:19:29;;;;;;;;;70.50;57.75;;;;;0.65;77.79;100944.63;4974644;28;45354;-70
2022/01/25 07:21:54;;;;;;;;;72.25;57.00;;;;;0.66;78.00;100948.97;4975176;28;45474;-70
2022/01/25 07:24:20;;;;;;;;;78.50;61.00;;;;;0.68;78.02;100954.16;4989974;28;45464;-70
2022/01/25 07:26:47;;;;;;;;;72.50;59.50;;;;;0.67;77.64;100948.09;4974948;28;46191;-70
2022/01/25 07:29:13;;;;;;;;;79.25;61.25;;;;;0.68;77.68;100955.06;4964933;28;45513;-70
2022/01/25 07:31:38;;;;;;;;;83.00;63.50;;;;;0.69;77.59;100953.34;4989869;28;45410;-69
2022/01/25 07:34:03;;;;;;;;;86.50;66.00;;;;;0.69;77.55;100958.53;4969979;28;45953;-71
2022/01/25 07:36:29;;;;;;;;;79.00;62.75;;;;;0.69;77.52;100954.22;4974798;28;45433;-69
2022/01/25 07:38:54;;;;;;;;;79.25;60.50;;;;;0.70;77.55;100958.56;4972593;28;45402;-70
2022/01/25 07:41:21;;;;;;;;;83.50;64.50;;;;;0.72;77.60;100960.34;4975148;28;45204;-72
2022/01/25 07:43:47;;;;;;;;;90.00;64.75;;;;;0.70;77.32;100962.88;4967078;28;45465;-70
2022/01/25 07:46:15;;;;;;;;;80.75;62.00;;;;;0.71;77.79;100962.06;4974284;28;46070;-73
2022/01/25 07:48:40;;;;;;;;;72.00;55.50;;;;;0.73;77.28;100968.16;4968633;28;45509;-70
2022/01/25 07:51:06;;;;;;;;;75.25;59.75;;;;;0.76;77.25;100959.59;4974344;28;45704;-70
2022/01/25 07:53:31;;;;;;;;;81.25;62.75;;;;;0.78;77.40;100958.81;4968098;28;45412;-71
2022/01/25 07:55:57;;;;;;;;;80.50;62.25;;;;;0.82;77.07;100963.25;4974757;28;45530;-69
2022/01/25 07:58:22;;;;;;;;;88.25;66.25;;;;;0.84;77.03;100960.72;4973566;28;45506;-69
2022/01/25 08:00:48;;;;;;;;;84.25;63.00;;;;;0.86;76.92;100957.28;4972991;28;45847;-70
2022/01/25 08:03:16;;;;;;;;;72.25;56.75;;;;;0.89;77.01;100953.91;4970350;28;45407;-69
2022/01/25 08:05:44;;;;;;;;;74.00;60.00;;;;;0.92;76.87;100961.78;4974555;28;45692;-69
2022/01/25 08:08:10;;;;;;;;;86.00;62.50;;;;;0.93;76.59;100959.25;4971377;28;45573;-69
2022/01/25 08:10:35;;;;;;;;;66.25;44.75;;;;;0.99;77.01;100955.94;4974718;28;45423;-69
2022/01/25 08:13:01;;;;;;;;;87.75;65.25;;;;;1.02;77.01;100953.41;4973097;28;45437;-69
2022/01/25 08:15:26;;;;;;;;;85.25;64.00;;;;;1.08;76.86;100958.78;4974296;28;46127;-72
2022/01/25 08:17:52;;;;;;;;;82.75;62.00;;;;;1.14;76.87;100958.97;4974549;28;45404;-69
2022/01/25 08:20:17;;;;;;;;;80.50;64.00;;;;;1.19;76.69;100956.47;4974459;28;45451;-69
2022/01/25 08:22:44;;;;;;;;;80.00;61.50;;;;;1.22;76.39;100959.16;4972759;28;45455;-69
2022/01/25 08:25:11;;;;;;;;;80.25;64.50;;;;;1.26;76.33;100951.50;4968814;28;46317;-70
2022/01/25 08:27:36;;;;;;;;;84.75;64.00;;;;;1.29;76.30;100948.09;4968046;28;45386;-69
2022/01/25 08:30:03;;;;;;;;;75.50;61.00;;;;;1.32;76.27;100954.25;4971628;28;45519;-70
2022/01/25 08:32:28;;;;;;;;;87.25;65.25;;;;;1.36;76.47;100950.00;4970375;28;45313;-70
2022/01/25 08:34:54;;;;;;;;;80.25;62.50;;;;;1.38;76.37;100954.41;4983529;28;48126;-70
2022/01/25 08:37:19;;;;;;;;;88.25;67.25;;;;;1.42;76.37;100946.69;4970687;28;45474;-70
2022/01/25 08:39:45;;;;;;;;;83.50;64.75;;;;;1.45;76.17;100952.84;4971893;28;45453;-70
2022/01/25 08:42:11;;;;;;;;;83.25;60.75;;;;;1.49;76.00;100959.91;4989419;28;45637;-70
2022/01/25 08:44:37;;;;;;;;;88.00;66.00;;;;;1.52;75.73;100957.34;4974012;28;45387;-70
2022/01/25 08:47:04;;;;;;;;;89.00;68.00;;;;;1.55;75.79;100952.25;4973342;28;45494;-70
2022/01/25 08:49:30;;;;;;;;;82.50;63.50;;;;;1.59;75.80;100956.69;4969325;28;45410;-69
2022/01/25 08:51:56;;;;;;;;;83.75;64.75;;;;;1.65;75.47;100943.84;4973448;28;45347;-70
2022/01/25 08:54:22;;;;;;;;;70.75;57.25;;;;;1.70;75.34;100952.63;4969812;28;46148;-70
2022/01/25 08:56:47;;;;;;;;;85.00;65.25;;;;;1.76;75.26;100957.09;4974141;28;45356;-71
2022/01/25 08:59:12;;;;;;;;;80.50;62.25;;;;;1.80;75.07;100955.47;4973811;28;45389;-69
2022/01/25 09:01:38;;;;;;;;;78.00;60.00;;;;;1.83;75.20;100946.03;4974249;28;45487;-68
2022/01/25 09:04:04;;;;;;;;;78.50;62.00;;;;;1.86;74.74;100953.00;4971604;28;47450;-70
2022/01/25 09:06:30;;;;;;;;;50.50;37.25;;;;;1.89;74.68;100950.47;4965073;28;45443;-70
2022/01/25 09:09:05;;;;;;;;;76.75;60.25;;;;;1.91;74.60;100948.78;4971779;28;45477;-70
2022/01/25 09:11:31;;;;;;;;;82.00;61.25;;;;;1.96;74.66;100952.41;4960282;28;45400;-70
2022/01/25 09:13:57;;;;;;;;;75.00;59.50;;;;;2.00;74.75;100955.13;4971493;28;45489;-71
2022/01/25 09:16:23;;;;;;;;;81.75;60.50;;;;;2.06;74.28;100957.84;4973603;28;45466;-71
2022/01/25 09:18:48;;;;;;;;;73.25;55.75;;;;;2.12;74.28;100956.22;4965256;28;45715;-68
2022/01/25 09:21:14;;;;;;;;;76.00;59.75;;;;;2.19;74.26;100953.78;4968054;28;45485;-68
2022/01/25 09:23:40;;;;;;;;;78.25;58.25;;;;;2.25;73.55;100953.94;4972366;28;46364;-69
2022/01/25 09:26:06;;;;;;;;;67.25;49.75;;;;;2.32;73.83;100958.47;4972359;28;45339;-68
2022/01/25 09:28:31;;;;;;;;;76.25;59.25;;;;;2.37;73.56;100964.63;4965692;28;45577;-68
2022/01/25 09:30:57;;;;;;;;;72.25;56.75;;;;;2.45;73.58;100964.81;4972356;28;45462;-68
2022/01/25 09:33:24;;;;;;;;;74.50;57.25;;;;;2.51;73.04;100958.88;4969286;28;46045;-68
2022/01/25 09:35:51;;;;;;;;;81.75;60.25;;;;;2.58;73.18;100964.22;4976757;28;45454;-68
2022/01/25 09:38:17;;;;;;;;;71.25;56.50;;;;;2.63;72.84;100967.81;4970356;28;45397;-68
2022/01/25 09:40:43;;;;;;;;;70.00;57.00;;;;;2.71;73.00;100957.53;4992053;28;45554;-67
2022/01/25 09:43:08;;;;;;;;;74.25;59.00;;;;;2.77;72.75;100962.88;4975505;28;45590;-68
2022/01/25 09:45:35;;;;;;;;;74.00;59.50;;;;;2.83;72.90;100968.25;4976996;28;45494;-69
2022/01/25 09:48:02;;;;;;;;;71.75;57.00;;;;;2.90;72.58;100962.28;4971493;28;45526;-69
2022/01/25 09:50:28;;;;;;;;;84.75;61.00;;;;;2.95;72.37;100955.47;4976382;28;45537;-69
2022/01/25 09:52:53;;;;;;;;;84.50;64.75;;;;;3.00;72.47;100956.44;4969871;28;46638;-68
2022/01/25 09:55:22;;;;;;;;;79.25;60.75;;;;;3.05;72.02;100948.69;4977420;28;45602;-70
2022/01/25 09:57:48;;;;;;;;;78.25;60.25;;;;;3.10;72.30;100953.16;4974798;28;45418;-69
2022/01/25 10:00:17;;;;;;;;;73.75;60.00;;;;;3.16;71.98;100957.59;4976486;28;45447;-68
2022/01/25 10:02:55;;;;;;;;;71.00;57.00;;;;;3.23;71.63;100954.25;4973152;28;45502;-69
2022/01/25 10:05:32;;;;;;;;;74.50;58.25;;;;;3.28;71.45;100951.75;4967148;28;45474;-69
2022/01/25 10:08:08;;;;;;;;;81.25;62.00;;;;;3.33;71.92;100953.59;4972128;28;45403;-70
2022/01/25 10:10:37;;;;;;;;;81.25;60.75;;;;;3.40;71.59;100949.34;4976391;28;45427;-70
2022/01/25 10:13:10;;;;;;;;;75.25;59.00;;;;;3.45;71.24;100946.00;4973983;28;46257;-70
2022/01/25 10:15:36;;;;;;;;;76.25;58.75;;;;;3.50;71.02;100940.88;4971589;28;45418;-69
2022/01/25 10:18:04;;;;;;;;;79.25;62.00;;;;;3.55;71.01;100944.41;4976749;28;45812;-70
2022/01/25 10:20:33;;;;;;;;;57.00;44.25;;;;;3.60;70.57;100939.28;4976298;28;45586;-70
2022/01/25 10:23:01;;;;;;;;;76.75;58.75;;;;;3.65;70.63;100938.50;4986061;28;47361;-69
2022/01/25 10:25:35;;;;;;;;;80.25;63.00;;;;;3.75;70.46;100934.31;4976738;28;45411;-69
2022/01/25 10:28:02;;;;;;;;;79.00;58.75;;;;;3.83;70.30;100931.00;4967546;28;45352;-69
2022/01/25 10:30:37;;;;;;;;;75.75;58.25;;;;;3.90;69.81;100925.84;4971590;28;45608;-70
2022/01/25 10:33:15;;;;;;;;;77.25;58.25;;;;;3.97;69.74;100927.72;4968114;28;46032;-69
2022/01/25 10:35:40;;;;;;;;;77.00;58.00;;;;;4.05;69.72;100920.88;4976345;28;45426;-70
2022/01/25 10:38:26;;;;;;;;;74.50;57.50;;;;;4.14;69.53;100924.50;4971814;28;45523;-68
2022/01/25 10:40:54;;;;;;;;;71.00;56.00;;;;;4.22;69.41;100919.38;4965761;28;45303;-70
2022/01/25 10:43:26;;;;;;;;;71.50;56.25;;;;;4.31;68.99;100911.69;4973355;28;46385;-69
2022/01/25 10:46:03;;;;;;;;;69.00;55.75;;;;;4.40;68.64;100905.72;4974812;28;45573;-69
2022/01/25 10:48:29;;;;;;;;;69.25;52.25;;;;;4.44;68.36;100908.41;4975599;28;45468;-70
2022/01/25 10:51:07;;;;;;;;;72.50;56.75;;;;;4.51;68.42;100899.78;4976055;28;45438;-69
2022/01/25 10:53:32;;;;;;;;;68.25;53.25;;;;;4.57;67.72;100896.38;4974824;28;48208;-69
2022/01/25 10:56:00;;;;;;;;;70.25;52.50;;;;;4.64;68.03;100897.34;4990331;28;45365;-66
2022/01/25 10:58:25;;;;;;;;;66.25;54.50;;;;;4.71;67.99;100891.31;4986171;28;45535;-66
2022/01/25 11:00:51;;;;;;;;;65.00;53.00;;;;;4.77;67.43;100886.16;4972722;28;46809;-66
2022/01/25 11:03:32;;;;;;;;;69.00;55.25;;;;;4.82;67.54;100884.50;4972517;28;46229;-66
2022/01/25 11:06:09;;;;;;;;;71.50;57.75;;;;;4.86;67.42;100881.03;4973909;28;45471;-66
2022/01/25 11:08:37;;;;;;;;;67.50;54.75;;;;;4.93;67.09;100879.38;4973795;28;45491;-66
2022/01/25 11:11:03;;;;;;;;;67.00;52.00;;;;;4.98;67.13;100877.69;4974775;28;45533;-66
2022/01/25 11:16:00;;;;;;;;;75.50;58.00;;;;;5.10;66.71;100873.47;4972787;28;45338;-66
2022/01/25 11:18:25;;;;;;;;;78.25;58.75;;;;;5.19;66.94;100878.78;4969183;28;45510;-66
2022/01/25 11:20:54;;;;;;;;;75.00;57.25;;;;;5.29;66.57;100876.25;4972321;28;45592;-67
2022/01/25 11:23:20;;;;;;;;;71.50;56.25;;;;;5.36;66.20;100867.63;4969303;28;45458;-68
2022/01/25 11:25:48;;;;;;;;;70.50;56.75;;;;;5.42;66.25;100865.91;4972947;28;45451;-65
2022/01/25 11:28:14;;;;;;;;;76.25;56.00;;;;;5.48;66.00;100865.97;4969559;28;45486;-68
2022/01/25 11:30:40;;;;;;;;;79.25;58.25;;;;;5.57;65.54;100857.31;4973392;28;45807;-67
2022/01/25 11:33:11;;;;;;;;;72.25;56.50;;;;;5.65;65.45;100860.00;4968443;28;45430;-71
2022/01/25 11:35:38;;;;;;;;;69.25;55.50;;;;;5.71;65.40;100858.28;4975243;28;45349;-67
2022/01/25 11:38:05;;;;;;;;;68.75;56.25;;;;;5.78;64.65;100849.63;4970087;28;45515;-67
2022/01/25 11:40:40;;;;;;;;;71.00;55.25;;;;;5.83;64.62;100842.69;4973937;28;45364;-67
2022/01/25 11:43:16;;;;;;;;;71.75;55.00;;;;;5.92;64.76;100845.41;4974497;28;45563;-67
2022/01/25 11:45:49;;;;;;;;;74.00;56.00;;;;;5.99;64.21;100845.44;4975289;28;45430;-67
2022/01/25 11:48:22;;;;;;;;;68.50;52.25;;;;;6.06;64.19;100836.75;4975089;28;45400;-67
2022/01/25 11:50:47;;;;;;;;;75.50;57.75;;;;;6.12;63.77;100827.19;4990447;28;45411;-68
2022/01/25 11:53:16;;;;;;;;;72.25;55.25;;;;;6.20;63.74;100825.47;4974849;28;46073;-67
2022/01/25 11:55:49;;;;;;;;;66.25;51.75;;;;;6.27;63.39;100818.53;4975471;28;45712;-67
2022/01/25 11:58:25;;;;;;;;;67.75;53.25;;;;;6.35;63.11;100821.19;4975219;28;45493;-67
2022/01/25 12:00:54;;;;;;;;;68.67;54.00;;;;;6.43;62.97;100811.59;4975083;28;45424;-67
2022/01/25 12:03:27;;;;;;;;;66.00;52.33;;;;;6.50;62.83;100808.16;4974759;28;45521;-66
2022/01/25 12:06:13;;;;;;;;;61.00;50.33;;;;;6.57;62.52;100808.16;4974637;28;45392;-66
2022/01/25 12:11:51;;;;;;;;;60.67;49.33;;;;;6.69;61.85;100799.47;4974975;28;45432;-66
2022/01/25 12:14:25;;;;;;;;;61.33;50.67;;;;;6.73;61.46;100789.84;4973617;28;47797;-66
2022/01/25 12:17:08;;;;;;;;;68.00;49.00;;;;;6.78;61.14;100781.16;4974810;28;45421;-67
2022/01/25 12:19:44;;;;;;;;;57.33;44.67;;;;;6.82;61.58;100776.78;4977545;28;45479;-66
2022/01/25 12:22:14;;;;;;;;;63.33;49.00;;;;;6.92;61.00;100776.78;4974638;28;45466;-66
2022/01/25 12:24:43;;;;;;;;;54.00;42.67;;;;;7.02;61.43;100771.56;4989706;28;46361;-66
2022/01/25 12:29:47;;;;;;;;;53.67;42.00;;;;;7.22;60.17;100767.19;4974637;28;45439;-66
2022/01/25 12:32:32;;;;;;;;;49.33;40.67;;;;;7.25;59.66;100762.81;4974158;28;45359;-66
2022/01/25 12:35:18;;;;;;;;;50.33;41.33;;;;;7.29;59.48;100751.44;4988961;28;47685;-67
2022/01/25 12:37:46;;;;;;;;;47.33;40.00;;;;;7.34;59.64;100746.22;4974147;28;45354;-67
2022/01/25 12:40:26;;;;;;;;;54.00;41.33;;;;;7.38;59.01;100749.69;4974827;28;45501;-67
2022/01/25 12:42:55;;;;;;;;;46.33;38.00;;;;;7.40;58.88;100740.06;4974627;28;45528;-67
2022/01/25 12:45:23;;;;;;;;;52.33;43.33;;;;;7.41;58.81;100741.81;4972452;28;46341;-66
2022/01/25 12:48:10;;;;;;;;;52.00;41.67;;;;;7.46;58.49;100742.69;4974555;28;45280;-66
2022/01/25 12:50:38;;;;;;;;;52.67;43.33;;;;;7.51;58.49;100733.06;4989353;28;45610;-66
2022/01/25 12:53:05;;;;;;;;;55.00;41.00;;;;;7.55;57.80;100721.66;4973778;28;45423;-66
2022/01/25 12:55:34;;;;;;;;;52.00;41.33;;;;;7.58;57.53;100717.28;4973036;28;47371;-67
2022/01/25 12:58:00;;;;;;;;;39.33;35.33;;;;;7.61;57.02;100711.16;4974282;28;45256;-67
2022/01/25 13:00:35;;;;;;;;;48.00;38.67;;;;;7.66;57.33;100719.91;4974121;28;45527;-68
2022/01/25 13:03:16;;;;;;;;;46.00;37.33;;;;;7.72;57.02;100712.88;4973026;28;45560;-68
2022/01/25 13:06:03;;;;;;;;;54.00;43.67;;;;;7.77;57.18;100710.25;4973733;28;45922;-66
2022/01/25 13:08:46;;;;;;;;;54.00;43.67;;;;;7.82;57.68;100711.09;4966381;28;45382;-67
2022/01/25 13:11:29;;;;;;;;;59.00;45.33;;;;;7.88;57.33;100710.19;4978049;28;45671;-67
2022/01/25 13:14:15;;;;;;;;;60.33;48.67;;;;;7.93;57.16;100708.44;4977491;28;45388;-67